sensor_id;sensor_type;location;lat;lon;timestamp;pressure;altitude;pressure_sealevel;temperature;humidity
64632;BME280;58358;50.936;0.246;2022-10-31T00:00:08;101211.75;;;15.93;72.04
64632;BME280;58358;50.936;0.246;2022-10-31T00:02:32;101214.27;;;15.79;71.50
64632;BME280;58358;50.936;0.246;2022-10-31T00:04:57;101214.17;;;15.26;72.12
64632;BME280;58358;50.936;0.246;2022-10-31T00:07:23;101217.50;;;15.20;72.62
64632;BME280;58358;50.936;0.246;2022-10-31T00:09:48;101224.01;;;14.53;74.19
64632;BME280;58358;50.936;0.246;2022-10-31T00:12:13;101215.35;;;15.07;73.39
64632;BME280;58358;50.936;0.246;2022-10-31T00:14:39;101212.88;;;15.27;73.11
64632;BME280;58358;50.936;0.246;2022-10-31T00:17:05;101213.41;;;14.66;74.01
64632;BME280;58358;50.936;0.246;2022-10-31T00:19:30;101211.58;;;13.93;75.31
64632;BME280;58358;50.936;0.246;2022-10-31T00:21:56;101213.88;;;14.73;73.89
64632;BME280;58358;50.936;0.246;2022-10-31T00:24:21;101213.50;;;14.70;74.09
64632;BME280;58358;50.936;0.246;2022-10-31T00:26:47;101216.74;;;14.25;74.14
64632;BME280;58358;50.936;0.246;2022-10-31T00:29:13;101217.67;;;14.83;73.29
64632;BME280;58358;50.936;0.246;2022-10-31T00:31:39;101214.58;;;14.91;72.62
64632;BME280;58358;50.936;0.246;2022-10-31T00:34:04;101219.41;;;14.57;71.53
64632;BME280;58358;50.936;0.246;2022-10-31T00:36:30;101214.62;;;15.33;71.39
64632;BME280;58358;50.936;0.246;2022-10-31T00:38:58;101218.95;;;15.10;70.62
64632;BME280;58358;50.936;0.246;2022-10-31T00:41:21;101215.69;;;15.40;69.93
64632;BME280;58358;50.936;0.246;2022-10-31T00:43:47;101217.62;;;15.09;70.00
64632;BME280;58358;50.936;0.246;2022-10-31T00:46:13;101212.18;;;15.15;70.02
64632;BME280;58358;50.936;0.246;2022-10-31T00:48:38;101212.81;;;15.04;70.11
64632;BME280;58358;50.936;0.246;2022-10-31T00:51:03;101214.42;;;15.11;70.15
64632;BME280;58358;50.936;0.246;2022-10-31T00:53:29;101214.17;;;15.32;69.30
64632;BME280;58358;50.936;0.246;2022-10-31T00:55:54;101213.91;;;15.02;69.79
64632;BME280;58358;50.936;0.246;2022-10-31T00:58:20;101215.38;;;15.13;69.71
64632;BME280;58358;50.936;0.246;2022-10-31T01:00:47;101214.63;;;14.70;69.87
64632;BME280;58358;50.936;0.246;2022-10-31T01:03:11;101217.66;;;15.16;69.57
64632;BME280;58358;50.936;0.246;2022-10-31T01:05:37;101214.77;;;14.99;69.99
64632;BME280;58358;50.936;0.246;2022-10-31T01:08:03;101216.27;;;14.74;69.53
64632;BME280;58358;50.936;0.246;2022-10-31T01:10:28;101213.93;;;14.81;69.62
64632;BME280;58358;50.936;0.246;2022-10-31T01:12:54;101210.97;;;14.73;69.52
64632;BME280;58358;50.936;0.246;2022-10-31T01:15:21;101212.77;;;15.20;68.35
64632;BME280;58358;50.936;0.246;2022-10-31T01:17:46;101212.71;;;15.09;69.12
64632;BME280;58358;50.936;0.246;2022-10-31T01:20:13;101213.15;;;15.20;68.41
64632;BME280;58358;50.936;0.246;2022-10-31T01:22:37;101214.95;;;15.14;67.91
64632;BME280;58358;50.936;0.246;2022-10-31T01:25:03;101214.56;;;14.71;68.82
64632;BME280;58358;50.936;0.246;2022-10-31T01:27:28;101217.70;;;14.76;68.94
64632;BME280;58358;50.936;0.246;2022-10-31T01:29:54;101211.51;;;14.91;68.06
64632;BME280;58358;50.936;0.246;2022-10-31T01:32:19;101213.59;;;15.21;68.05
64632;BME280;58358;50.936;0.246;2022-10-31T01:34:45;101213.04;;;15.31;67.75
64632;BME280;58358;50.936;0.246;2022-10-31T01:37:11;101213.40;;;14.48;69.63
64632;BME280;58358;50.936;0.246;2022-10-31T01:39:36;101206.41;;;14.57;69.31
64632;BME280;58358;50.936;0.246;2022-10-31T01:42:02;101207.78;;;14.99;67.85
64632;BME280;58358;50.936;0.246;2022-10-31T01:44:48;101209.77;;;14.09;69.56
64632;BME280;58358;50.936;0.246;2022-10-31T01:47:01;101203.23;;;14.56;68.84
64632;BME280;58358;50.936;0.246;2022-10-31T01:49:23;101206.54;;;14.29;69.40
64632;BME280;58358;50.936;0.246;2022-10-31T01:51:49;101200.52;;;15.24;67.09
64632;BME280;58358;50.936;0.246;2022-10-31T01:54:12;101196.56;;;15.34;66.92
64632;BME280;58358;50.936;0.246;2022-10-31T01:56:41;101196.45;;;14.93;67.90
64632;BME280;58358;50.936;0.246;2022-10-31T01:59:02;101194.16;;;14.82;67.85
64632;BME280;58358;50.936;0.246;2022-10-31T02:01:27;101195.82;;;14.81;67.61
64632;BME280;58358;50.936;0.246;2022-10-31T02:03:52;101191.74;;;15.29;67.52
64632;BME280;58358;50.936;0.246;2022-10-31T02:06:27;101189.89;;;15.13;66.83
64632;BME280;58358;50.936;0.246;2022-10-31T02:08:44;101189.34;;;15.37;66.85
64632;BME280;58358;50.936;0.246;2022-10-31T02:11:10;101186.83;;;15.08;66.81
64632;BME280;58358;50.936;0.246;2022-10-31T02:13:35;101178.46;;;15.24;66.83
64632;BME280;58358;50.936;0.246;2022-10-31T02:16:01;101179.78;;;15.26;66.69
64632;BME280;58358;50.936;0.246;2022-10-31T02:18:28;101177.67;;;15.10;66.92
64632;BME280;58358;50.936;0.246;2022-10-31T02:21:00;101177.58;;;15.34;66.70
64632;BME280;58358;50.936;0.246;2022-10-31T02:23:38;101178.05;;;14.76;66.71
64632;BME280;58358;50.936;0.246;2022-10-31T02:28:24;101175.68;;;15.51;65.37
64632;BME280;58358;50.936;0.246;2022-10-31T02:33:12;101173.79;;;14.44;67.75
64632;BME280;58358;50.936;0.246;2022-10-31T02:35:39;101181.85;;;14.12;68.66
64632;BME280;58358;50.936;0.246;2022-10-31T02:37:59;101175.25;;;14.55;68.28
64632;BME280;58358;50.936;0.246;2022-10-31T02:40:23;101170.21;;;14.59;67.76
64632;BME280;58358;50.936;0.246;2022-10-31T02:42:48;101170.32;;;14.96;66.86
64632;BME280;58358;50.936;0.246;2022-10-31T02:45:16;101168.94;;;14.79;67.00
64632;BME280;58358;50.936;0.246;2022-10-31T02:47:37;101165.94;;;14.28;68.04
64632;BME280;58358;50.936;0.246;2022-10-31T02:50:03;101165.32;;;15.09;66.48
64632;BME280;58358;50.936;0.246;2022-10-31T02:52:28;101162.94;;;15.31;66.70
64632;BME280;58358;50.936;0.246;2022-10-31T02:54:52;101163.14;;;15.10;67.01
64632;BME280;58358;50.936;0.246;2022-10-31T02:57:22;101157.63;;;15.09;66.86
64632;BME280;58358;50.936;0.246;2022-10-31T02:59:47;101154.21;;;15.00;66.38
64632;BME280;58358;50.936;0.246;2022-10-31T03:02:22;101156.90;;;14.92;66.48
64632;BME280;58358;50.936;0.246;2022-10-31T03:04:44;101156.89;;;14.43;67.29
64632;BME280;58358;50.936;0.246;2022-10-31T03:07:10;101156.87;;;14.80;66.04
64632;BME280;58358;50.936;0.246;2022-10-31T03:09:32;101156.74;;;15.26;65.53
64632;BME280;58358;50.936;0.246;2022-10-31T03:11:58;101155.36;;;15.07;66.24
64632;BME280;58358;50.936;0.246;2022-10-31T03:14:21;101153.70;;;15.04;66.34
64632;BME280;58358;50.936;0.246;2022-10-31T03:16:47;101153.38;;;15.70;65.27
64632;BME280;58358;50.936;0.246;2022-10-31T03:19:10;101156.48;;;15.33;65.51
64632;BME280;58358;50.936;0.246;2022-10-31T03:21:35;101153.29;;;14.26;67.43
64632;BME280;58358;50.936;0.246;2022-10-31T03:24:00;101151.60;;;15.05;65.96
64632;BME280;58358;50.936;0.246;2022-10-31T03:26:25;101152.44;;;13.80;67.77
64632;BME280;58358;50.936;0.246;2022-10-31T03:28:55;101144.35;;;15.26;65.40
64632;BME280;58358;50.936;0.246;2022-10-31T03:31:18;101141.36;;;14.75;65.36
64632;BME280;58358;50.936;0.246;2022-10-31T03:33:42;101139.83;;;14.77;65.70
64632;BME280;58358;50.936;0.246;2022-10-31T03:36:09;101143.74;;;14.80;65.76
64632;BME280;58358;50.936;0.246;2022-10-31T03:38:34;101142.22;;;14.68;65.89
64632;BME280;58358;50.936;0.246;2022-10-31T03:41:03;101141.25;;;14.74;65.38
64632;BME280;58358;50.936;0.246;2022-10-31T03:43:28;101138.38;;;15.28;64.38
64632;BME280;58358;50.936;0.246;2022-10-31T03:45:51;101138.14;;;15.06;65.27
64632;BME280;58358;50.936;0.246;2022-10-31T03:48:18;101137.13;;;14.78;65.62
64632;BME280;58358;50.936;0.246;2022-10-31T03:50:49;101134.85;;;15.17;66.00
64632;BME280;58358;50.936;0.246;2022-10-31T03:53:11;101133.59;;;15.33;65.15
64632;BME280;58358;50.936;0.246;2022-10-31T03:55:39;101138.21;;;15.26;65.96
64632;BME280;58358;50.936;0.246;2022-10-31T03:58:03;101136.27;;;15.16;65.80
64632;BME280;58358;50.936;0.246;2022-10-31T04:00:24;101131.67;;;14.92;66.31
64632;BME280;58358;50.936;0.246;2022-10-31T04:02:57;101131.27;;;15.06;66.61
64632;BME280;58358;50.936;0.246;2022-10-31T04:05:17;101131.27;;;15.52;66.03
64632;BME280;58358;50.936;0.246;2022-10-31T04:07:46;101129.47;;;15.28;66.09
64632;BME280;58358;50.936;0.246;2022-10-31T04:10:11;101131.40;;;15.36;65.33
64632;BME280;58358;50.936;0.246;2022-10-31T04:12:34;101132.52;;;14.99;66.22
64632;BME280;58358;50.936;0.246;2022-10-31T04:14:59;101130.66;;;15.14;65.84
64632;BME280;58358;50.936;0.246;2022-10-31T04:17:29;101129.64;;;15.03;66.01
64632;BME280;58358;50.936;0.246;2022-10-31T04:19:50;101128.50;;;14.76;65.79
64632;BME280;58358;50.936;0.246;2022-10-31T04:22:15;101128.31;;;14.83;65.51
64632;BME280;58358;50.936;0.246;2022-10-31T04:24:41;101128.06;;;15.15;65.17
64632;BME280;58358;50.936;0.246;2022-10-31T04:27:07;101126.30;;;14.85;65.24
64632;BME280;58358;50.936;0.246;2022-10-31T04:29:32;101121.16;;;15.30;64.96
64632;BME280;58358;50.936;0.246;2022-10-31T04:31:58;101120.96;;;15.50;63.35
64632;BME280;58358;50.936;0.246;2022-10-31T04:34:24;101117.46;;;15.30;63.33
64632;BME280;58358;50.936;0.246;2022-10-31T04:36:49;101120.49;;;14.55;63.99
64632;BME280;58358;50.936;0.246;2022-10-31T04:39:15;101121.06;;;14.84;64.42
64632;BME280;58358;50.936;0.246;2022-10-31T04:41:40;101120.17;;;15.06;64.91
64632;BME280;58358;50.936;0.246;2022-10-31T04:44:06;101119.57;;;14.94;64.84
64632;BME280;58358;50.936;0.246;2022-10-31T04:46:32;101114.57;;;15.50;63.91
64632;BME280;58358;50.936;0.246;2022-10-31T04:48:58;101113.63;;;14.98;64.01
64632;BME280;58358;50.936;0.246;2022-10-31T04:51:23;101116.17;;;14.41;65.48
64632;BME280;58358;50.936;0.246;2022-10-31T04:53:49;101107.18;;;14.35;66.99
64632;BME280;58358;50.936;0.246;2022-10-31T04:56:14;101100.45;;;15.01;64.73
64632;BME280;58358;50.936;0.246;2022-10-31T04:58:40;101099.39;;;14.78;64.34
64632;BME280;58358;50.936;0.246;2022-10-31T05:01:06;101101.64;;;14.76;64.58
64632;BME280;58358;50.936;0.246;2022-10-31T05:03:31;101100.00;;;15.15;63.92
64632;BME280;58358;50.936;0.246;2022-10-31T05:05:58;101101.98;;;14.69;64.59
64632;BME280;58358;50.936;0.246;2022-10-31T05:08:23;101101.45;;;14.86;64.19
64632;BME280;58358;50.936;0.246;2022-10-31T05:10:48;101104.00;;;14.76;64.49
64632;BME280;58358;50.936;0.246;2022-10-31T05:13:14;101104.51;;;14.24;64.53
64632;BME280;58358;50.936;0.246;2022-10-31T05:15:40;101104.69;;;14.34;64.47
64632;BME280;58358;50.936;0.246;2022-10-31T05:18:06;101104.88;;;14.50;64.14
64632;BME280;58358;50.936;0.246;2022-10-31T05:20:32;101099.70;;;15.36;62.90
64632;BME280;58358;50.936;0.246;2022-10-31T05:22:58;101099.02;;;14.73;64.44
64632;BME280;58358;50.936;0.246;2022-10-31T05:25:25;101096.73;;;14.11;65.82
64632;BME280;58358;50.936;0.246;2022-10-31T05:27:50;101094.33;;;14.28;65.57
64632;BME280;58358;50.936;0.246;2022-10-31T05:30:16;101103.45;;;13.96;66.69
64632;BME280;58358;50.936;0.246;2022-10-31T05:32:40;101093.45;;;13.96;65.26
64632;BME280;58358;50.936;0.246;2022-10-31T05:35:07;101093.32;;;14.30;64.56
64632;BME280;58358;50.936;0.246;2022-10-31T05:37:31;101094.50;;;13.69;65.22
64632;BME280;58358;50.936;0.246;2022-10-31T05:39:57;101092.72;;;13.69;65.49
64632;BME280;58358;50.936;0.246;2022-10-31T05:42:23;101092.36;;;13.72;65.83
64632;BME280;58358;50.936;0.246;2022-10-31T05:44:48;101089.22;;;13.96;65.85
64632;BME280;58358;50.936;0.246;2022-10-31T05:47:15;101085.72;;;13.56;65.59
64632;BME280;58358;50.936;0.246;2022-10-31T05:49:40;101079.24;;;13.63;66.09
64632;BME280;58358;50.936;0.246;2022-10-31T05:52:05;101077.19;;;13.61;65.22
64632;BME280;58358;50.936;0.246;2022-10-31T05:54:31;101074.66;;;13.79;65.10
64632;BME280;58358;50.936;0.246;2022-10-31T05:56:57;101072.22;;;14.26;64.53
64632;BME280;58358;50.936;0.246;2022-10-31T05:59:23;101077.58;;;13.52;65.97
64632;BME280;58358;50.936;0.246;2022-10-31T06:01:48;101077.38;;;12.88;67.13
64632;BME280;58358;50.936;0.246;2022-10-31T06:04:14;101082.79;;;12.41;68.51
64632;BME280;58358;50.936;0.246;2022-10-31T06:06:40;101080.22;;;12.54;68.67
64632;BME280;58358;50.936;0.246;2022-10-31T06:09:05;101080.19;;;12.27;69.33
64632;BME280;58358;50.936;0.246;2022-10-31T06:11:31;101080.56;;;13.07;67.65
64632;BME280;58358;50.936;0.246;2022-10-31T06:13:57;101072.43;;;12.48;68.47
64632;BME280;58358;50.936;0.246;2022-10-31T06:16:23;101066.18;;;12.15;69.55
64632;BME280;58358;50.936;0.246;2022-10-31T06:18:48;101067.31;;;12.76;68.30
64632;BME280;58358;50.936;0.246;2022-10-31T06:21:14;101068.95;;;12.99;67.40
64632;BME280;58358;50.936;0.246;2022-10-31T06:23:40;101069.05;;;13.07;67.05
64632;BME280;58358;50.936;0.246;2022-10-31T06:26:06;101065.62;;;13.06;67.06
64632;BME280;58358;50.936;0.246;2022-10-31T06:28:31;101061.37;;;12.00;71.16
64632;BME280;58358;50.936;0.246;2022-10-31T06:30:57;101063.60;;;12.33;70.83
64632;BME280;58358;50.936;0.246;2022-10-31T06:33:23;101063.23;;;12.82;68.67
64632;BME280;58358;50.936;0.246;2022-10-31T06:35:48;101060.31;;;12.74;68.03
64632;BME280;58358;50.936;0.246;2022-10-31T06:38:14;101056.83;;;12.43;68.92
64632;BME280;58358;50.936;0.246;2022-10-31T06:40:41;101057.76;;;12.80;67.26
64632;BME280;58358;50.936;0.246;2022-10-31T06:43:06;101057.14;;;10.99;71.41
64632;BME280;58358;50.936;0.246;2022-10-31T06:45:31;101059.48;;;12.05;69.45
64632;BME280;58358;50.936;0.246;2022-10-31T06:47:58;101059.62;;;10.53;73.96
64632;BME280;58358;50.936;0.246;2022-10-31T06:50:24;101059.65;;;10.81;73.12
64632;BME280;58358;50.936;0.246;2022-10-31T06:52:50;101060.86;;;10.55;73.82
64632;BME280;58358;50.936;0.246;2022-10-31T06:55:14;101055.29;;;10.12;76.35
64632;BME280;58358;50.936;0.246;2022-10-31T06:57:40;101054.20;;;10.72;75.73
64632;BME280;58358;50.936;0.246;2022-10-31T07:00:07;101047.06;;;11.63;72.05
64632;BME280;58358;50.936;0.246;2022-10-31T07:02:32;101044.39;;;11.92;70.57
64632;BME280;58358;50.936;0.246;2022-10-31T07:04:58;101044.92;;;11.91;70.20
64632;BME280;58358;50.936;0.246;2022-10-31T07:07:23;101042.64;;;11.15;71.60
64632;BME280;58358;50.936;0.246;2022-10-31T07:09:49;101040.31;;;10.76;71.59
64632;BME280;58358;50.936;0.246;2022-10-31T07:12:15;101038.95;;;10.47;73.46
64632;BME280;58358;50.936;0.246;2022-10-31T07:14:40;101035.28;;;12.10;69.20
64632;BME280;58358;50.936;0.246;2022-10-31T07:17:06;101029.62;;;11.48;69.72
64632;BME280;58358;50.936;0.246;2022-10-31T07:19:31;101035.94;;;11.64;69.27
64632;BME280;58358;50.936;0.246;2022-10-31T07:21:57;101042.34;;;10.36;71.65
64632;BME280;58358;50.936;0.246;2022-10-31T07:24:23;101044.64;;;9.15;79.02
64632;BME280;58358;50.936;0.246;2022-10-31T07:26:49;101042.39;;;11.17;72.26
64632;BME280;58358;50.936;0.246;2022-10-31T07:29:14;101046.15;;;8.93;77.65
64632;BME280;58358;50.936;0.246;2022-10-31T07:31:40;101038.00;;;9.38;77.45
64632;BME280;58358;50.936;0.246;2022-10-31T07:34:05;101032.68;;;9.75;75.85
64632;BME280;58358;50.936;0.246;2022-10-31T07:36:31;101025.48;;;10.10;75.86
64632;BME280;58358;50.936;0.246;2022-10-31T07:38:58;101026.78;;;10.22;75.88
64632;BME280;58358;50.936;0.246;2022-10-31T07:41:23;101025.99;;;10.38;76.19
64632;BME280;58358;50.936;0.246;2022-10-31T07:43:49;101023.20;;;10.90;74.38
64632;BME280;58358;50.936;0.246;2022-10-31T07:46:14;101024.94;;;10.51;74.34
64632;BME280;58358;50.936;0.246;2022-10-31T07:48:40;101021.92;;;11.73;71.22
64632;BME280;58358;50.936;0.246;2022-10-31T07:51:06;101021.85;;;11.73;70.98
64632;BME280;58358;50.936;0.246;2022-10-31T07:53:31;101021.92;;;11.55;71.35
64632;BME280;58358;50.936;0.246;2022-10-31T07:55:57;101022.61;;;11.81;70.16
64632;BME280;58358;50.936;0.246;2022-10-31T07:58:22;101023.18;;;12.43;69.25
64632;BME280;58358;50.936;0.246;2022-10-31T08:00:48;101026.41;;;12.33;69.78
64632;BME280;58358;50.936;0.246;2022-10-31T08:03:15;101027.87;;;12.57;71.14
64632;BME280;58358;50.936;0.246;2022-10-31T08:05:39;101033.20;;;12.93;69.90
64632;BME280;58358;50.936;0.246;2022-10-31T08:08:05;101030.41;;;13.15;68.30
64632;BME280;58358;50.936;0.246;2022-10-31T08:10:30;101030.17;;;12.61;69.51
64632;BME280;58358;50.936;0.246;2022-10-31T08:12:57;101033.40;;;12.48;71.33
64632;BME280;58358;50.936;0.246;2022-10-31T08:15:21;101030.29;;;12.65;71.63
64632;BME280;58358;50.936;0.246;2022-10-31T08:17:47;101022.96;;;13.33;70.41
64632;BME280;58358;50.936;0.246;2022-10-31T08:20:13;101014.99;;;13.43;68.75
64632;BME280;58358;50.936;0.246;2022-10-31T08:22:38;101021.06;;;13.62;69.47
64632;BME280;58358;50.936;0.246;2022-10-31T08:25:04;101016.47;;;12.85;69.79
64632;BME280;58358;50.936;0.246;2022-10-31T08:27:29;101011.52;;;13.02;70.56
64632;BME280;58358;50.936;0.246;2022-10-31T08:29:55;101008.12;;;13.13;70.60
64632;BME280;58358;50.936;0.246;2022-10-31T08:32:21;101006.71;;;13.41;70.55
64632;BME280;58358;50.936;0.246;2022-10-31T08:34:46;101010.62;;;13.23;71.63
64632;BME280;58358;50.936;0.246;2022-10-31T08:37:12;101005.08;;;14.27;69.88
64632;BME280;58358;50.936;0.246;2022-10-31T08:39:38;101001.81;;;13.94;69.93
64632;BME280;58358;50.936;0.246;2022-10-31T08:42:03;101004.54;;;14.36;70.55
64632;BME280;58358;50.936;0.246;2022-10-31T08:44:29;101001.22;;;14.47;70.47
64632;BME280;58358;50.936;0.246;2022-10-31T08:46:55;100994.17;;;14.07;70.75
64632;BME280;58358;50.936;0.246;2022-10-31T08:49:21;100989.06;;;13.79;71.16
64632;BME280;58358;50.936;0.246;2022-10-31T08:51:47;100985.95;;;13.88;71.69
64632;BME280;58358;50.936;0.246;2022-10-31T08:54:11;100981.69;;;14.31;70.92
64632;BME280;58358;50.936;0.246;2022-10-31T08:56:37;100986.83;;;13.72;73.39
64632;BME280;58358;50.936;0.246;2022-10-31T08:59:03;100981.55;;;13.41;76.34
64632;BME280;58358;50.936;0.246;2022-10-31T09:01:28;100978.32;;;14.63;73.21
64632;BME280;58358;50.936;0.246;2022-10-31T09:03:53;100975.32;;;14.60;73.50
64632;BME280;58358;50.936;0.246;2022-10-31T09:06:19;100973.99;;;14.45;73.38
64632;BME280;58358;50.936;0.246;2022-10-31T09:08:45;100970.73;;;13.66;75.94
64632;BME280;58358;50.936;0.246;2022-10-31T09:11:10;100966.10;;;14.14;74.50
64632;BME280;58358;50.936;0.246;2022-10-31T09:13:36;100962.75;;;15.31;71.41
64632;BME280;58358;50.936;0.246;2022-10-31T09:16:01;100956.08;;;14.55;72.50
64632;BME280;58358;50.936;0.246;2022-10-31T09:18:27;100952.41;;;14.11;75.42
64632;BME280;58358;50.936;0.246;2022-10-31T09:20:52;100949.29;;;14.62;74.61
64632;BME280;58358;50.936;0.246;2022-10-31T09:23:20;100943.18;;;13.60;76.24
64632;BME280;58358;50.936;0.246;2022-10-31T09:25:44;100936.70;;;14.75;73.64
64632;BME280;58358;50.936;0.246;2022-10-31T09:28:11;100935.13;;;14.88;73.90
64632;BME280;58358;50.936;0.246;2022-10-31T09:30:35;100931.70;;;14.26;74.51
64632;BME280;58358;50.936;0.246;2022-10-31T09:33:03;100933.08;;;13.49;77.88
64632;BME280;58358;50.936;0.246;2022-10-31T09:35:27;100928.62;;;14.28;75.14
64632;BME280;58358;50.936;0.246;2022-10-31T09:37:55;100926.15;;;13.87;76.53
64632;BME280;58358;50.936;0.246;2022-10-31T09:40:18;100920.49;;;14.43;75.16
64632;BME280;58358;50.936;0.246;2022-10-31T09:42:54;100916.59;;;14.59;75.58
64632;BME280;58358;50.936;0.246;2022-10-31T09:45:15;100910.59;;;13.47;77.63
64632;BME280;58358;50.936;0.246;2022-10-31T09:47:47;100906.70;;;13.46;77.27
64632;BME280;58358;50.936;0.246;2022-10-31T09:50:13;100903.44;;;14.34;75.75
64632;BME280;58358;50.936;0.246;2022-10-31T09:52:29;100903.06;;;13.08;80.59
64632;BME280;58358;50.936;0.246;2022-10-31T09:54:54;100893.15;;;14.20;76.42
64632;BME280;58358;50.936;0.246;2022-10-31T09:57:23;100892.36;;;13.55;77.39
64632;BME280;58358;50.936;0.246;2022-10-31T09:59:44;100894.89;;;14.23;75.58
64632;BME280;58358;50.936;0.246;2022-10-31T10:02:17;100891.91;;;14.47;75.74
64632;BME280;58358;50.936;0.246;2022-10-31T10:04:38;100889.39;;;14.73;75.78
64632;BME280;58358;50.936;0.246;2022-10-31T10:07:06;100888.38;;;13.31;77.66
64632;BME280;58358;50.936;0.246;2022-10-31T10:09:26;100889.42;;;13.60;76.37
64632;BME280;58358;50.936;0.246;2022-10-31T10:11:58;100884.10;;;15.21;72.12
64632;BME280;58358;50.936;0.246;2022-10-31T10:14:29;100887.38;;;13.94;75.16
64632;BME280;58358;50.936;0.246;2022-10-31T10:16:58;100887.31;;;14.78;73.89
64632;BME280;58358;50.936;0.246;2022-10-31T10:19:20;100883.69;;;14.35;73.66
64632;BME280;58358;50.936;0.246;2022-10-31T10:21:41;100884.33;;;13.98;75.39
64632;BME280;58358;50.936;0.246;2022-10-31T10:24:10;100881.31;;;13.17;76.82
64632;BME280;58358;50.936;0.246;2022-10-31T10:26:28;100878.04;;;13.25;76.58
64632;BME280;58358;50.936;0.246;2022-10-31T10:28:54;100876.15;;;14.23;74.77
64632;BME280;58358;50.936;0.246;2022-10-31T10:31:17;100883.06;;;14.30;75.08
64632;BME280;58358;50.936;0.246;2022-10-31T10:33:44;100886.95;;;14.24;75.91
64632;BME280;58358;50.936;0.246;2022-10-31T10:36:12;100889.06;;;13.80;78.16
64632;BME280;58358;50.936;0.246;2022-10-31T10:38:35;100890.48;;;13.62;78.84
64632;BME280;58358;50.936;0.246;2022-10-31T10:41:03;100888.91;;;13.20;79.43
64632;BME280;58358;50.936;0.246;2022-10-31T10:43:26;100879.34;;;13.44;78.69
64632;BME280;58358;50.936;0.246;2022-10-31T10:45:58;100866.91;;;13.21;77.83
64632;BME280;58358;50.936;0.246;2022-10-31T10:48:25;100870.01;;;13.24;79.22
64632;BME280;58358;50.936;0.246;2022-10-31T10:50:44;100864.04;;;14.32;77.82
64632;BME280;58358;50.936;0.246;2022-10-31T10:53:15;100862.75;;;14.25;75.50
64632;BME280;58358;50.936;0.246;2022-10-31T10:55:36;100856.47;;;13.87;75.17
64632;BME280;58358;50.936;0.246;2022-10-31T10:58:02;100853.69;;;14.09;73.13
64632;BME280;58358;50.936;0.246;2022-10-31T11:00:24;100851.40;;;13.76;73.01
64632;BME280;58358;50.936;0.246;2022-10-31T11:02:48;100839.70;;;15.10;69.64
64632;BME280;58358;50.936;0.246;2022-10-31T11:05:23;100836.03;;;15.00;70.85
64632;BME280;58358;50.936;0.246;2022-10-31T11:07:40;100833.33;;;15.97;69.21
64632;BME280;58358;50.936;0.246;2022-10-31T11:10:06;100826.47;;;14.42;73.31
64632;BME280;58358;50.936;0.246;2022-10-31T11:12:32;100825.19;;;14.36;73.64
64632;BME280;58358;50.936;0.246;2022-10-31T11:15:00;100821.81;;;14.53;72.72
64632;BME280;58358;50.936;0.246;2022-10-31T11:17:29;100822.51;;;14.76;73.05
64632;BME280;58358;50.936;0.246;2022-10-31T11:19:47;100819.22;;;14.54;73.20
64632;BME280;58358;50.936;0.246;2022-10-31T11:22:16;100821.56;;;14.56;73.64
64632;BME280;58358;50.936;0.246;2022-10-31T11:24:40;100818.37;;;14.97;72.59
64632;BME280;58358;50.936;0.246;2022-10-31T11:27:12;100808.37;;;14.63;74.09
64632;BME280;58358;50.936;0.246;2022-10-31T11:29:29;100798.88;;;14.45;74.20
64632;BME280;58358;50.936;0.246;2022-10-31T11:31:57;100789.80;;;13.95;75.57
64632;BME280;58358;50.936;0.246;2022-10-31T11:34:28;100785.10;;;14.44;75.25
64632;BME280;58358;50.936;0.246;2022-10-31T11:36:47;100780.71;;;14.34;75.82
64632;BME280;58358;50.936;0.246;2022-10-31T11:39:18;100779.00;;;13.73;76.48
64632;BME280;58358;50.936;0.246;2022-10-31T11:41:38;100770.80;;;14.63;75.15
64632;BME280;58358;50.936;0.246;2022-10-31T11:44:06;100768.33;;;14.94;74.59
64632;BME280;58358;50.936;0.246;2022-10-31T11:46:35;100758.89;;;15.14;73.77
64632;BME280;58358;50.936;0.246;2022-10-31T11:48:55;100758.96;;;15.81;70.83
64632;BME280;58358;50.936;0.246;2022-10-31T11:51:21;100752.83;;;15.27;70.63
64632;BME280;58358;50.936;0.246;2022-10-31T11:53:51;100745.06;;;15.83;70.57
64632;BME280;58358;50.936;0.246;2022-10-31T11:56:13;100736.98;;;14.95;73.77
64632;BME280;58358;50.936;0.246;2022-10-31T11:58:37;100732.82;;;15.01;73.86
64632;BME280;58358;50.936;0.246;2022-10-31T12:01:02;100720.48;;;14.26;75.81
64632;BME280;58358;50.936;0.246;2022-10-31T12:03:38;100713.18;;;14.71;73.98
64632;BME280;58358;50.936;0.246;2022-10-31T12:05:58;100711.08;;;16.07;70.48
64632;BME280;58358;50.936;0.246;2022-10-31T12:08:19;100711.15;;;15.40;70.05
64632;BME280;58358;50.936;0.246;2022-10-31T12:10:52;100702.71;;;14.75;72.77
64632;BME280;58358;50.936;0.246;2022-10-31T12:13:22;100695.65;;;15.43;70.48
64632;BME280;58358;50.936;0.246;2022-10-31T12:15:38;100698.44;;;15.83;70.47
64632;BME280;58358;50.936;0.246;2022-10-31T12:18:17;100698.74;;;14.75;71.34
64632;BME280;58358;50.936;0.246;2022-10-31T12:20:37;100697.52;;;14.99;71.38
64632;BME280;58358;50.936;0.246;2022-10-31T12:23:00;100686.67;;;15.94;70.04
64632;BME280;58358;50.936;0.246;2022-10-31T12:25:28;100677.07;;;14.87;72.70
64632;BME280;58358;50.936;0.246;2022-10-31T12:28:03;100668.87;;;14.29;74.15
64632;BME280;58358;50.936;0.246;2022-10-31T12:30:15;100671.28;;;14.74;73.34
64632;BME280;58358;50.936;0.246;2022-10-31T12:32:43;100661.01;;;15.53;70.47
64632;BME280;58358;50.936;0.246;2022-10-31T12:37:40;100644.03;;;15.18;69.85
64632;BME280;58358;50.936;0.246;2022-10-31T12:39:58;100626.57;;;15.88;67.87
64632;BME280;58358;50.936;0.246;2022-10-31T12:42:26;100629.31;;;14.84;70.20
64632;BME280;58358;50.936;0.246;2022-10-31T12:47:24;100616.41;;;16.28;67.74
64632;BME280;58358;50.936;0.246;2022-10-31T12:49:46;100612.57;;;16.04;68.44